Time;durP1;ratioP1;P1;durP2;ratioP2;P2;SDS_P1;SDS_P2;PMS_P1;PMS_P2;Temp;Humidity;BMP_temperature;BMP_pressure;BME280_temperature;BME280_humidity;BME280_pressure;Samples;Min_cycle;Max_cycle;Signal;HPM_P1;HPM_P2
2022/10/10 00:00:04;;;;;;;9.20;6.03;;;;;;;;;;5032059;28;20546;-74
2022/10/10 00:02:29;;;;;;;7.83;6.57;;;;;;;;;;5013456;28;20706;-74
2022/10/10 00:04:55;;;;;;;6.90;5.63;;;;;;;;;;5032296;28;20202;-74
2022/10/10 00:07:20;;;;;;;8.53;5.70;;;;;;;;;;5032345;28;20628;-74
2022/10/10 00:09:45;;;;;;;8.23;6.20;;;;;;;;;;5032031;28;20170;-74
2022/10/10 00:12:11;;;;;;;9.03;6.17;;;;;;;;;;5013929;28;20159;-74
2022/10/10 00:14:36;;;;;;;8.17;6.03;;;;;;;;;;5014219;28;20170;-74
2022/10/10 00:17:01;;;;;;;7.97;6.07;;;;;;;;;;5032209;28;20166;-74
2022/10/10 00:19:26;;;;;;;9.37;6.20;;;;;;;;;;5031957;28;20178;-74
2022/10/10 00:21:51;;;;;;;9.43;5.93;;;;;;;;;;5031596;28;20237;-74
2022/10/10 00:24:17;;;;;;;7.80;5.43;;;;;;;;;;5031730;28;20209;-75
2022/10/10 00:26:42;;;;;;;8.07;5.30;;;;;;;;;;5031805;28;20169;-75
2022/10/10 00:29:07;;;;;;;11.27;6.63;;;;;;;;;;5014046;28;20597;-74
2022/10/10 00:31:32;;;;;;;10.10;6.40;;;;;;;;;;5031359;28;20190;-75
2022/10/10 00:33:57;;;;;;;9.23;5.83;;;;;;;;;;5031816;28;20220;-74
2022/10/10 00:36:23;;;;;;;9.93;5.90;;;;;;;;;;5014176;28;20173;-74
2022/10/10 00:38:48;;;;;;;10.53;5.70;;;;;;;;;;5032354;28;20167;-74
2022/10/10 00:41:13;;;;;;;13.03;6.80;;;;;;;;;;5031177;28;20163;-74
2022/10/10 00:43:39;;;;;;;11.20;7.43;;;;;;;;;;5031556;28;20184;-75
2022/10/10 00:46:04;;;;;;;8.00;6.40;;;;;;;;;;5031465;28;20849;-75
2022/10/10 00:48:31;;;;;;;9.43;6.93;;;;;;;;;;5031687;28;20170;-74
2022/10/10 00:51:01;;;;;;;8.47;6.57;;;;;;;;;;5031088;28;20655;-75
2022/10/10 00:53:31;;;;;;;7.50;6.17;;;;;;;;;;5031513;28;20192;-75
2022/10/10 00:55:57;;;;;;;10.27;6.63;;;;;;;;;;5031279;28;20643;-75
2022/10/10 00:58:22;;;;;;;12.73;6.47;;;;;;;;;;5031451;28;20249;-74
2022/10/10 01:00:48;;;;;;;9.87;7.10;;;;;;;;;;5030968;28;20166;-75
2022/10/10 01:03:13;;;;;;;13.40;7.47;;;;;;;;;;5031554;28;20759;-75
2022/10/10 01:05:39;;;;;;;8.30;6.43;;;;;;;;;;5031308;28;20190;-74
2022/10/10 01:08:05;;;;;;;7.53;6.33;;;;;;;;;;5031291;28;20163;-74
2022/10/10 01:10:33;;;;;;;11.33;6.40;;;;;;;;;;5031353;28;20194;-74
2022/10/10 01:13:06;;;;;;;7.47;5.93;;;;;;;;;;5013030;28;20213;-74
2022/10/10 01:15:37;;;;;;;11.43;6.97;;;;;;;;;;5033862;28;20178;-76
2022/10/10 01:18:02;;;;;;;8.23;6.20;;;;;;;;;;5035567;28;20166;-74
2022/10/10 01:20:30;;;;;;;9.23;7.03;;;;;;;;;;5035346;28;20173;-74
2022/10/10 01:22:55;;;;;;;9.50;5.90;;;;;;;;;;5035020;28;20706;-75
2022/10/10 01:25:36;;;;;;;10.87;6.73;;;;;;;;;;5034851;28;20210;-74
2022/10/10 01:28:01;;;;;;;9.93;5.77;;;;;;;;;;5035478;28;20170;-74
2022/10/10 01:30:28;;;;;;;8.83;6.17;;;;;;;;;;5017233;28;20715;-74
2022/10/10 01:32:59;;;;;;;11.60;5.80;;;;;;;;;;5017039;28;20668;-74
2022/10/10 01:35:27;;;;;;;9.57;6.73;;;;;;;;;;5035210;28;20586;-74
2022/10/10 01:37:52;;;;;;;7.23;5.93;;;;;;;;;;5034754;28;20166;-74
2022/10/10 01:40:20;;;;;;;7.50;6.40;;;;;;;;;;5034897;28;20174;-74
2022/10/10 01:42:50;;;;;;;10.57;5.73;;;;;;;;;;5034456;28;20674;-74
2022/10/10 01:45:15;;;;;;;7.40;5.40;;;;;;;;;;5034586;28;20583;-74
2022/10/10 01:47:41;;;;;;;6.10;5.50;;;;;;;;;;5034299;28;20163;-74
2022/10/10 01:50:11;;;;;;;9.57;6.60;;;;;;;;;;5034861;28;20201;-74
2022/10/10 01:52:55;;;;;;;8.00;5.90;;;;;;;;;;5034260;28;20196;-74
2022/10/10 01:55:32;;;;;;;9.67;6.63;;;;;;;;;;5035049;28;20178;-74
2022/10/10 01:58:16;;;;;;;8.40;5.90;;;;;;;;;;5034591;28;20666;-74
2022/10/10 02:00:47;;;;;;;9.80;6.13;;;;;;;;;;5034315;28;20534;-75
2022/10/10 02:03:18;;;;;;;10.23;5.80;;;;;;;;;;5034623;28;20201;-74
2022/10/10 02:05:49;;;;;;;9.33;5.80;;;;;;;;;;5034346;28;20638;-74
2022/10/10 02:08:19;;;;;;;9.97;6.23;;;;;;;;;;5034210;28;20173;-74
2022/10/10 02:10:53;;;;;;;10.07;6.33;;;;;;;;;;5034150;28;20636;-74
2022/10/10 02:13:21;;;;;;;10.60;6.13;;;;;;;;;;5034213;28;20265;-74
2022/10/10 02:15:52;;;;;;;8.87;5.67;;;;;;;;;;5034293;28;20253;-74
2022/10/10 02:18:18;;;;;;;8.60;6.20;;;;;;;;;;5034193;28;20632;-74
2022/10/10 02:20:44;;;;;;;6.63;5.63;;;;;;;;;;5033657;28;20174;-74
2022/10/10 02:23:11;;;;;;;8.30;5.67;;;;;;;;;;5034042;28;20698;-74
2022/10/10 02:25:38;;;;;;;7.37;5.30;;;;;;;;;;5033607;28;20625;-72
2022/10/10 02:28:13;;;;;;;9.87;5.87;;;;;;;;;;5033914;28;20228;-74
2022/10/10 02:30:41;;;;;;;8.57;5.87;;;;;;;;;;5033957;28;20178;-74
2022/10/10 02:33:07;;;;;;;6.93;6.10;;;;;;;;;;5015936;28;20190;-75
2022/10/10 02:35:35;;;;;;;8.13;5.77;;;;;;;;;;5033994;28;20193;-74
2022/10/10 02:38:01;;;;;;;6.93;5.50;;;;;;;;;;5034022;28;20178;-71
2022/10/10 02:40:28;;;;;;;7.53;5.27;;;;;;;;;;5033769;28;20177;-74
2022/10/10 02:42:54;;;;;;;7.17;5.20;;;;;;;;;;5033243;28;20198;-72
2022/10/10 02:45:20;;;;;;;9.33;6.27;;;;;;;;;;5033541;28;20182;-75
2022/10/10 02:47:45;;;;;;;8.93;5.80;;;;;;;;;;5033313;28;20166;-74
2022/10/10 02:50:10;;;;;;;7.43;5.83;;;;;;;;;;5033569;28;20163;-74
2022/10/10 02:52:36;;;;;;;8.60;6.03;;;;;;;;;;5033153;28;20193;-74
2022/10/10 02:55:01;;;;;;;8.17;5.87;;;;;;;;;;5033630;28;20193;-74
2022/10/10 02:57:27;;;;;;;8.00;5.97;;;;;;;;;;5033396;28;20228;-73
2022/10/10 02:59:52;;;;;;;6.40;5.20;;;;;;;;;;5033352;28;20220;-73
2022/10/10 03:02:17;;;;;;;6.60;5.40;;;;;;;;;;5032758;28;20265;-74
2022/10/10 03:04:43;;;;;;;9.07;5.93;;;;;;;;;;5033418;28;20208;-72
2022/10/10 03:07:08;;;;;;;11.87;6.17;;;;;;;;;;5033264;28;20162;-73
2022/10/10 03:09:34;;;;;;;9.90;5.67;;;;;;;;;;5033475;28;20162;-73
2022/10/10 03:11:59;;;;;;;6.93;5.97;;;;;;;;;;5032973;28;20185;-73
2022/10/10 03:14:24;;;;;;;8.77;6.30;;;;;;;;;;5033085;28;20285;-73
2022/10/10 03:16:49;;;;;;;7.10;5.67;;;;;;;;;;5033023;28;20265;-72
2022/10/10 03:19:14;;;;;;;8.10;5.50;;;;;;;;;;5033129;28;20193;-73
2022/10/10 03:21:39;;;;;;;8.47;6.40;;;;;;;;;;5032689;28;20542;-73
2022/10/10 03:24:05;;;;;;;8.37;6.10;;;;;;;;;;5032900;28;20214;-74
2022/10/10 03:26:31;;;;;;;7.87;5.90;;;;;;;;;;5032922;28;20297;-74
2022/10/10 03:28:56;;;;;;;8.43;5.80;;;;;;;;;;5032951;28;20205;-72
2022/10/10 03:31:22;;;;;;;8.87;6.47;;;;;;;;;;5032396;28;20289;-75
2022/10/10 03:33:47;;;;;;;7.97;5.87;;;;;;;;;;5032699;28;20202;-73
2022/10/10 03:36:12;;;;;;;7.90;6.00;;;;;;;;;;5032914;28;20170;-72
2022/10/10 03:38:40;;;;;;;7.70;6.07;;;;;;;;;;5031935;28;20171;-74
2022/10/10 03:41:05;;;;;;;8.47;5.77;;;;;;;;;;5032451;28;20194;-74
2022/10/10 03:43:31;;;;;;;8.00;6.07;;;;;;;;;;5014968;28;20225;-73
2022/10/10 03:45:56;;;;;;;10.47;6.60;;;;;;;;;;5014378;28;20194;-73
2022/10/10 03:48:21;;;;;;;8.90;6.83;;;;;;;;;;5032074;28;20178;-73
2022/10/10 03:50:46;;;;;;;9.70;6.00;;;;;;;;;;5032421;28;20704;-73
2022/10/10 03:53:11;;;;;;;9.67;7.33;;;;;;;;;;5032308;28;20186;-73
2022/10/10 03:55:40;;;;;;;9.03;6.00;;;;;;;;;;5032399;28;20182;-73
2022/10/10 03:58:06;;;;;;;7.37;5.60;;;;;;;;;;5032066;28;20332;-73
2022/10/10 04:00:31;;;;;;;10.83;6.50;;;;;;;;;;5032198;28;20701;-73
2022/10/10 04:02:56;;;;;;;11.97;6.47;;;;;;;;;;5031684;28;20192;-73
2022/10/10 04:05:21;;;;;;;11.47;6.67;;;;;;;;;;5032117;28;20195;-73
2022/10/10 04:07:46;;;;;;;11.63;6.60;;;;;;;;;;5032157;28;20170;-73
2022/10/10 04:10:12;;;;;;;10.43;5.77;;;;;;;;;;5032206;28;20163;-73
2022/10/10 04:12:37;;;;;;;9.37;6.30;;;;;;;;;;5031377;28;20276;-73
2022/10/10 04:15:02;;;;;;;9.17;6.77;;;;;;;;;;5032096;28;20556;-73
2022/10/10 04:17:27;;;;;;;9.97;6.50;;;;;;;;;;5031975;28;20186;-73
2022/10/10 04:19:52;;;;;;;10.63;6.87;;;;;;;;;;5031978;28;20202;-73
2022/10/10 04:22:18;;;;;;;10.77;6.97;;;;;;;;;;5031762;28;20166;-73
2022/10/10 04:24:43;;;;;;;13.60;7.23;;;;;;;;;;5032034;28;20747;-73
2022/10/10 04:27:09;;;;;;;10.00;7.27;;;;;;;;;;5013977;28;20170;-73
2022/10/10 04:29:35;;;;;;;10.67;6.33;;;;;;;;;;5031760;28;20656;-73
2022/10/10 04:32:00;;;;;;;11.73;7.17;;;;;;;;;;5031658;28;20174;-73
2022/10/10 04:34:25;;;;;;;8.00;6.03;;;;;;;;;;5031657;28;20568;-74
2022/10/10 04:36:50;;;;;;;10.47;5.93;;;;;;;;;;5031832;28;20189;-74
2022/10/10 04:39:15;;;;;;;7.03;5.87;;;;;;;;;;5031593;28;20220;-74
2022/10/10 04:41:41;;;;;;;9.33;6.20;;;;;;;;;;5031178;28;20174;-74
2022/10/10 04:44:06;;;;;;;11.77;7.20;;;;;;;;;;5031089;28;20220;-74
2022/10/10 04:46:31;;;;;;;7.50;6.03;;;;;;;;;;5031687;28;20538;-74
2022/10/10 04:48:56;;;;;;;8.70;6.80;;;;;;;;;;5031040;28;20166;-74
2022/10/10 04:51:22;;;;;;;11.93;8.43;;;;;;;;;;5031320;28;20189;-72
2022/10/10 04:53:47;;;;;;;8.43;6.33;;;;;;;;;;5013633;28;20696;-74
2022/10/10 04:56:12;;;;;;;8.97;6.20;;;;;;;;;;5013886;28;20180;-74
2022/10/10 04:58:37;;;;;;;8.77;6.17;;;;;;;;;;5013751;28;20174;-74
2022/10/10 05:01:03;;;;;;;10.20;6.33;;;;;;;;;;5031184;28;20201;-72
2022/10/10 05:03:28;;;;;;;10.50;7.00;;;;;;;;;;5031185;28;20209;-74
2022/10/10 05:05:53;;;;;;;12.37;6.53;;;;;;;;;;5031360;28;20206;-72
2022/10/10 05:08:18;;;;;;;10.37;6.63;;;;;;;;;;5031108;28;20206;-71
2022/10/10 05:10:44;;;;;;;7.83;6.83;;;;;;;;;;5031129;28;20162;-72
2022/10/10 05:13:10;;;;;;;10.20;6.30;;;;;;;;;;5030986;28;20202;-72
2022/10/10 05:15:36;;;;;;;14.43;7.90;;;;;;;;;;5031308;28;20561;-72
2022/10/10 05:18:01;;;;;;;9.50;6.60;;;;;;;;;;5013580;28;20269;-74
2022/10/10 05:20:27;;;;;;;9.13;6.77;;;;;;;;;;5031340;28;20178;-74
2022/10/10 05:22:52;;;;;;;10.67;6.90;;;;;;;;;;5030895;28;20200;-74
2022/10/10 05:25:17;;;;;;;9.33;6.77;;;;;;;;;;5031127;28;20205;-74
2022/10/10 05:27:43;;;;;;;9.37;6.40;;;;;;;;;;5031116;28;20221;-74
2022/10/10 05:30:08;;;;;;;8.23;6.53;;;;;;;;;;5013427;28;20170;-74
2022/10/10 05:32:34;;;;;;;7.77;6.07;;;;;;;;;;5030841;28;20179;-74
2022/10/10 05:34:59;;;;;;;7.37;6.00;;;;;;;;;;5031148;28;20648;-74
2022/10/10 05:37:24;;;;;;;10.77;7.00;;;;;;;;;;5031138;28;20470;-74
2022/10/10 05:39:49;;;;;;;11.20;7.33;;;;;;;;;;5030942;28;20193;-74
2022/10/10 05:42:15;;;;;;;9.00;6.30;;;;;;;;;;5030876;28;20206;-74
2022/10/10 05:44:40;;;;;;;9.47;7.27;;;;;;;;;;5013270;28;20618;-74
2022/10/10 05:47:05;;;;;;;9.40;6.97;;;;;;;;;;5031169;28;20170;-74
2022/10/10 05:49:30;;;;;;;15.40;7.17;;;;;;;;;;5030803;28;20612;-74
2022/10/10 05:51:55;;;;;;;10.67;7.00;;;;;;;;;;5012946;28;20172;-74
2022/10/10 05:54:21;;;;;;;12.13;7.43;;;;;;;;;;5030747;28;20629;-73
2022/10/10 05:56:46;;;;;;;11.07;6.83;;;;;;;;;;5031102;28;20519;-71
2022/10/10 05:59:11;;;;;;;9.67;7.23;;;;;;;;;;5013047;28;20175;-74
2022/10/10 06:01:37;;;;;;;10.13;6.93;;;;;;;;;;5015213;28;20552;-74
2022/10/10 06:04:02;;;;;;;11.90;7.60;;;;;;;;;;5034341;28;20261;-74
2022/10/10 06:06:27;;;;;;;10.47;7.60;;;;;;;;;;5034510;28;20571;-74
2022/10/10 06:08:52;;;;;;;10.67;7.83;;;;;;;;;;5034280;28;20301;-74
2022/10/10 06:11:19;;;;;;;12.27;7.70;;;;;;;;;;5034020;28;20541;-74
2022/10/10 06:13:46;;;;;;;11.23;7.53;;;;;;;;;;5034118;28;20201;-73
2022/10/10 06:16:11;;;;;;;11.70;7.37;;;;;;;;;;5034324;28;20644;-73
2022/10/10 06:18:36;;;;;;;8.90;6.53;;;;;;;;;;5034239;28;20224;-73
2022/10/10 06:21:03;;;;;;;9.90;7.10;;;;;;;;;;5033802;28;20224;-73
2022/10/10 06:23:28;;;;;;;12.97;7.33;;;;;;;;;;5033870;28;20201;-74
2022/10/10 06:25:53;;;;;;;14.27;7.27;;;;;;;;;;5034043;28;20205;-73
2022/10/10 06:28:18;;;;;;;13.13;8.93;;;;;;;;;;5034054;28;20176;-74
2022/10/10 06:30:47;;;;;;;12.77;7.93;;;;;;;;;;5033678;28;20170;-74
2022/10/10 06:33:14;;;;;;;11.10;7.30;;;;;;;;;;5016366;28;20195;-74
2022/10/10 06:35:42;;;;;;;11.40;7.57;;;;;;;;;;5033903;28;20240;-73
2022/10/10 06:38:08;;;;;;;12.63;7.80;;;;;;;;;;5016121;28;20178;-73
2022/10/10 06:40:33;;;;;;;12.40;8.17;;;;;;;;;;5033578;28;20247;-74
2022/10/10 06:42:58;;;;;;;9.13;7.23;;;;;;;;;;5033539;28;20276;-73
2022/10/10 06:45:24;;;;;;;11.47;8.17;;;;;;;;;;5033421;28;20189;-74
2022/10/10 06:47:49;;;;;;;13.80;8.03;;;;;;;;;;5033846;28;20236;-74
2022/10/10 06:50:14;;;;;;;10.67;7.53;;;;;;;;;;5032146;28;20178;-74
2022/10/10 06:52:40;;;;;;;10.87;7.97;;;;;;;;;;5033035;28;20190;-74
2022/10/10 06:55:05;;;;;;;13.10;8.37;;;;;;;;;;5033479;28;20205;-73
2022/10/10 06:57:30;;;;;;;10.37;7.83;;;;;;;;;;5032711;28;20175;-73
2022/10/10 06:59:55;;;;;;;11.23;7.33;;;;;;;;;;5013643;28;20190;-73
2022/10/10 07:02:22;;;;;;;9.33;7.33;;;;;;;;;;5032144;28;20198;-73
2022/10/10 07:04:47;;;;;;;11.73;7.23;;;;;;;;;;5033295;28;20581;-74
2022/10/10 07:07:12;;;;;;;12.00;8.00;;;;;;;;;;5033093;28;20170;-74
2022/10/10 07:09:37;;;;;;;10.83;6.57;;;;;;;;;;5015520;28;20180;-74
2022/10/10 07:12:03;;;;;;;9.30;6.60;;;;;;;;;;5030340;28;20266;-74
2022/10/10 07:14:28;;;;;;;11.57;7.20;;;;;;;;;;5033156;28;20191;-73
2022/10/10 07:16:53;;;;;;;9.20;6.03;;;;;;;;;;5033157;28;20163;-74
2022/10/10 07:19:20;;;;;;;9.63;5.90;;;;;;;;;;5033067;28;20194;-74
2022/10/10 07:21:45;;;;;;;9.67;5.97;;;;;;;;;;5026289;28;20205;-74
2022/10/10 07:24:10;;;;;;;10.13;6.33;;;;;;;;;;5032536;28;20202;-73
2022/10/10 07:26:37;;;;;;;9.37;6.13;;;;;;;;;;5033028;28;20173;-73
2022/10/10 07:29:02;;;;;;;6.80;5.47;;;;;;;;;;5032841;28;20232;-73
2022/10/10 07:31:27;;;;;;;8.37;5.93;;;;;;;;;;5030641;28;20170;-73
2022/10/10 07:33:53;;;;;;;10.67;5.80;;;;;;;;;;5032899;28;20283;-73
2022/10/10 07:36:18;;;;;;;10.03;6.10;;;;;;;;;;5033122;28;20700;-73
2022/10/10 07:38:43;;;;;;;9.03;5.53;;;;;;;;;;5026563;28;20181;-73
2022/10/10 07:41:10;;;;;;;8.33;5.53;;;;;;;;;;5032328;28;20177;-73
2022/10/10 07:43:36;;;;;;;10.50;5.67;;;;;;;;;;5032412;28;20273;-73
2022/10/10 07:46:01;;;;;;;9.63;6.43;;;;;;;;;;5031559;28;20286;-73
2022/10/10 07:48:27;;;;;;;9.47;5.93;;;;;;;;;;5032503;28;20604;-73
2022/10/10 07:50:52;;;;;;;6.55;5.82;;;;;;;;;;5031873;28;20166;-74
2022/10/10 07:53:18;;;;;;;8.03;5.90;;;;;;;;;;5032296;28;20190;-72
2022/10/10 07:55:43;;;;;;;9.03;5.73;;;;;;;;;;5030972;28;20225;-72
2022/10/10 07:58:09;;;;;;;17.77;6.63;;;;;;;;;;5031324;28;20596;-72
2022/10/10 08:00:35;;;;;;;9.88;5.32;;;;;;;;;;5032190;28;20183;-72
2022/10/10 08:03:00;;;;;;;7.80;5.30;;;;;;;;;;5031702;28;20198;-72
2022/10/10 08:05:25;;;;;;;7.63;4.70;;;;;;;;;;5031802;28;20190;-72
2022/10/10 08:07:51;;;;;;;8.07;5.35;;;;;;;;;;5014787;28;20170;-74
2022/10/10 08:10:16;;;;;;;7.97;5.20;;;;;;;;;;5031269;28;20244;-72
2022/10/10 08:12:41;;;;;;;8.48;5.05;;;;;;;;;;5027921;28;20194;-72
2022/10/10 08:15:06;;;;;;;8.05;5.40;;;;;;;;;;5031063;28;20178;-72
2022/10/10 08:17:32;;;;;;;6.05;5.30;;;;;;;;;;5032059;28;20170;-72
2022/10/10 08:19:57;;;;;;;6.03;4.57;;;;;;;;;;5014014;28;20261;-72
2022/10/10 08:22:23;;;;;;;7.07;4.93;;;;;;;;;;5031723;28;20261;-72
2022/10/10 08:24:48;;;;;;;10.80;5.60;;;;;;;;;;5029391;28;20214;-72
2022/10/10 08:27:16;;;;;;;5.95;4.50;;;;;;;;;;5031256;28;20166;-72
2022/10/10 08:29:41;;;;;;;6.63;4.85;;;;;;;;;;5031603;28;20170;-72
2022/10/10 08:32:06;;;;;;;7.57;4.57;;;;;;;;;;5031640;28;20162;-73
2022/10/10 08:34:31;;;;;;;5.20;4.32;;;;;;;;;;5031819;28;20194;-72
2022/10/10 08:36:57;;;;;;;9.60;4.30;;;;;;;;;;5031634;28;20730;-73
2022/10/10 08:39:22;;;;;;;5.05;4.10;;;;;;;;;;5030989;28;20209;-72
2022/10/10 08:41:49;;;;;;;7.90;4.95;;;;;;;;;;5031195;28;20182;-73
2022/10/10 08:44:21;;;;;;;6.72;4.50;;;;;;;;;;5031611;28;20190;-73
2022/10/10 08:46:59;;;;;;;6.90;4.78;;;;;;;;;;5031458;28;20162;-73
2022/10/10 08:49:37;;;;;;;6.78;4.47;;;;;;;;;;5014061;28;20531;-73
2022/10/10 08:52:02;;;;;;;8.23;4.65;;;;;;;;;;5025189;28;20186;-73
2022/10/10 08:54:28;;;;;;;9.37;5.10;;;;;;;;;;5031410;28;20186;-72
2022/10/10 08:56:55;;;;;;;6.43;4.78;;;;;;;;;;5031437;28;20394;-74
2022/10/10 08:59:23;;;;;;;8.80;4.93;;;;;;;;;;5029221;28;20175;-74
2022/10/10 09:01:50;;;;;;;9.02;5.80;;;;;;;;;;5028587;28;20170;-71
2022/10/10 09:04:17;;;;;;;6.47;4.55;;;;;;;;;;5024926;28;20254;-74
2022/10/10 09:06:42;;;;;;;7.63;5.03;;;;;;;;;;5026181;28;20242;-74
2022/10/10 09:09:10;;;;;;;8.80;5.22;;;;;;;;;;5013734;28;20178;-74
2022/10/10 09:11:35;;;;;;;11.23;5.15;;;;;;;;;;5031003;28;20169;-71
2022/10/10 09:14:08;;;;;;;10.97;5.73;;;;;;;;;;5031148;28;20194;-71
2022/10/10 09:16:45;;;;;;;6.88;5.32;;;;;;;;;;5030741;28;20499;-73
2022/10/10 09:19:10;;;;;;;7.22;5.25;;;;;;;;;;5026969;28;20208;-73
2022/10/10 09:21:36;;;;;;;9.37;5.70;;;;;;;;;;5031240;28;20213;-73
2022/10/10 09:24:04;;;;;;;7.60;5.30;;;;;;;;;;5031065;28;20434;-72
2022/10/10 09:26:32;;;;;;;7.28;5.22;;;;;;;;;;5031175;28;20204;-72
2022/10/10 09:29:05;;;;;;;9.55;5.15;;;;;;;;;;5013730;28;20182;-70
2022/10/10 09:31:36;;;;;;;7.60;5.53;;;;;;;;;;5030228;28;20180;-72
2022/10/10 09:34:07;;;;;;;7.40;5.60;;;;;;;;;;5031045;28;20190;-70
2022/10/10 09:36:34;;;;;;;7.35;4.80;;;;;;;;;;5033707;28;20198;-72
2022/10/10 09:39:05;;;;;;;11.07;5.07;;;;;;;;;;5017277;28;20175;-72
2022/10/10 09:41:54;;;;;;;8.15;4.50;;;;;;;;;;5034774;28;20213;-72
2022/10/10 09:44:20;;;;;;;9.85;5.80;;;;;;;;;;5024021;28;20202;-72
2022/10/10 09:46:45;;;;;;;8.82;5.35;;;;;;;;;;5029950;28;20178;-72
2022/10/10 09:49:12;;;;;;;7.03;5.10;;;;;;;;;;5033339;28;20174;-72
2022/10/10 09:51:38;;;;;;;7.97;4.90;;;;;;;;;;5033952;28;20190;-72
2022/10/10 09:54:03;;;;;;;8.70;5.25;;;;;;;;;;5033894;28;20672;-72
2022/10/10 09:56:37;;;;;;;7.75;5.47;;;;;;;;;;5014965;28;20282;-72
2022/10/10 09:59:02;;;;;;;7.82;4.63;;;;;;;;;;5016905;28;20193;-72
2022/10/10 10:01:29;;;;;;;8.77;5.97;;;;;;;;;;5033365;28;20648;-70
2022/10/10 10:04:14;;;;;;;6.85;5.95;;;;;;;;;;5016401;28;20248;-70
2022/10/10 10:06:48;;;;;;;7.72;4.60;;;;;;;;;;5034337;28;20691;-71
2022/10/10 10:09:15;;;;;;;9.95;4.93;;;;;;;;;;5022888;28;20543;-70
2022/10/10 10:11:40;;;;;;;6.78;4.45;;;;;;;;;;5033784;28;20654;-70
2022/10/10 10:14:13;;;;;;;9.05;5.78;;;;;;;;;;5033577;28;20190;-72
2022/10/10 10:16:39;;;;;;;7.43;4.80;;;;;;;;;;5032814;28;20623;-70
2022/10/10 10:19:06;;;;;;;10.15;5.35;;;;;;;;;;5034267;28;20258;-70
2022/10/10 10:21:31;;;;;;;9.32;5.43;;;;;;;;;;5034062;28;20224;-73
2022/10/10 10:23:58;;;;;;;10.75;5.20;;;;;;;;;;5032006;28;20659;-72
2022/10/10 10:26:39;;;;;;;8.63;5.18;;;;;;;;;;5016044;28;20190;-70
2022/10/10 10:29:04;;;;;;;7.50;4.88;;;;;;;;;;5034093;28;20198;-70
2022/10/10 10:31:38;;;;;;;8.85;5.25;;;;;;;;;;5015930;28;20206;-71
2022/10/10 10:34:18;;;;;;;8.63;5.40;;;;;;;;;;5032497;28;20646;-71
2022/10/10 10:36:53;;;;;;;9.02;5.10;;;;;;;;;;5014113;28;20701;-70
2022/10/10 10:39:32;;;;;;;6.78;4.60;;;;;;;;;;5014346;28;20171;-70
2022/10/10 10:42:01;;;;;;;7.00;4.75;;;;;;;;;;4995970;28;20676;-70
2022/10/10 10:44:31;;;;;;;6.72;4.90;;;;;;;;;;4996495;28;20619;-70
2022/10/10 10:47:00;;;;;;;13.32;6.75;;;;;;;;;;5028337;28;20177;-70
2022/10/10 10:49:31;;;;;;;8.10;4.95;;;;;;;;;;5032783;28;20188;-71
2022/10/10 10:52:12;;;;;;;8.15;5.40;;;;;;;;;;5028955;28;20646;-70
2022/10/10 10:54:46;;;;;;;8.52;5.07;;;;;;;;;;5028604;28;20309;-70
2022/10/10 10:57:16;;;;;;;7.18;5.20;;;;;;;;;;5028934;28;20204;-70
2022/10/10 10:59:41;;;;;;;9.88;5.60;;;;;;;;;;5033679;28;20265;-70
2022/10/10 11:02:06;;;;;;;9.00;4.53;;;;;;;;;;5033461;28;20258;-70
2022/10/10 11:04:51;;;;;;;9.25;5.07;;;;;;;;;;5025768;28;20463;-70
2022/10/10 11:07:18;;;;;;;6.93;5.05;;;;;;;;;;5033172;28;20454;-70
2022/10/10 11:10:03;;;;;;;10.25;4.78;;;;;;;;;;5033289;28;20170;-71
2022/10/10 11:12:44;;;;;;;9.55;5.00;;;;;;;;;;5018671;28;20240;-70
2022/10/10 11:15:15;;;;;;;8.60;4.18;;;;;;;;;;5033170;28;20201;-70
2022/10/10 11:17:44;;;;;;;5.03;4.45;;;;;;;;;;5032212;28;20273;-71
2022/10/10 11:20:19;;;;;;;7.30;5.40;;;;;;;;;;5024519;28;20240;-71
2022/10/10 11:22:48;;;;;;;7.47;4.65;;;;;;;;;;5024584;28;20221;-70
2022/10/10 11:25:18;;;;;;;6.50;5.35;;;;;;;;;;5032913;28;20252;-71
2022/10/10 11:27:49;;;;;;;6.88;4.60;;;;;;;;;;5033100;28;20743;-70
2022/10/10 11:30:16;;;;;;;12.30;5.22;;;;;;;;;;5033058;28;20167;-70
2022/10/10 11:32:47;;;;;;;11.07;5.03;;;;;;;;;;5025044;28;20198;-70
2022/10/10 11:35:31;;;;;;;5.50;4.45;;;;;;;;;;5032895;28;20729;-70
2022/10/10 11:38:01;;;;;;;13.20;4.82;;;;;;;;;;5032807;28;20178;-70
2022/10/10 11:40:30;;;;;;;6.82;4.78;;;;;;;;;;5032865;28;20630;-70
2022/10/10 11:43:00;;;;;;;8.05;5.28;;;;;;;;;;5032446;28;20202;-70
2022/10/10 11:45:31;;;;;;;10.65;5.63;;;;;;;;;;5028965;28;20202;-70
2022/10/10 11:48:05;;;;;;;9.48;4.57;;;;;;;;;;5014787;28;20178;-70
2022/10/10 11:50:34;;;;;;;8.10;4.88;;;;;;;;;;5014287;28;20260;-70
2022/10/10 11:53:05;;;;;;;9.30;4.88;;;;;;;;;;5032168;28;20741;-71
2022/10/10 11:55:39;;;;;;;8.18;4.97;;;;;;;;;;5032421;28;20230;-70
2022/10/10 11:58:05;;;;;;;8.73;5.75;;;;;;;;;;5030868;28;20170;-70
2022/10/10 12:00:34;;;;;;;9.70;6.27;;;;;;;;;;5029998;28;20186;-71
2022/10/10 12:03:00;;;;;;;9.95;4.63;;;;;;;;;;5031907;28;20424;-71
2022/10/10 12:05:27;;;;;;;8.80;5.15;;;;;;;;;;5032313;28;20284;-73
2022/10/10 12:07:55;;;;;;;8.23;5.28;;;;;;;;;;5032082;28;20174;-71
2022/10/10 12:10:22;;;;;;;10.88;6.18;;;;;;;;;;5032243;28;20245;-70
2022/10/10 12:12:49;;;;;;;9.07;5.57;;;;;;;;;;5031774;28;20201;-73
2022/10/10 12:15:30;;;;;;;9.48;5.50;;;;;;;;;;5028632;28;20598;-71
2022/10/10 12:17:56;;;;;;;7.60;5.10;;;;;;;;;;5025590;28;20241;-71
2022/10/10 12:20:24;;;;;;;11.05;5.75;;;;;;;;;;5031868;28;20174;-71
2022/10/10 12:23:08;;;;;;;9.32;5.50;;;;;;;;;;5024334;28;20730;-72
2022/10/10 12:25:35;;;;;;;7.18;5.00;;;;;;;;;;5031770;28;20234;-72
2022/10/10 12:28:10;;;;;;;10.70;5.65;;;;;;;;;;5030564;28;20174;-72
2022/10/10 12:30:35;;;;;;;10.48;6.47;;;;;;;;;;5031646;28;20530;-72
2022/10/10 12:33:00;;;;;;;12.27;6.07;;;;;;;;;;5013903;28;20190;-73
2022/10/10 12:35:30;;;;;;;10.40;7.13;;;;;;;;;;5031878;28;20187;-73
2022/10/10 12:38:04;;;;;;;10.27;6.53;;;;;;;;;;5031675;28;20546;-72
2022/10/10 12:40:30;;;;;;;13.50;6.20;;;;;;;;;;5031826;28;20167;-72
2022/10/10 12:42:55;;;;;;;10.15;5.43;;;;;;;;;;5027846;28;20196;-73
2022/10/10 12:45:30;;;;;;;13.07;6.68;;;;;;;;;;5031294;28;20194;-72
2022/10/10 12:47:56;;;;;;;10.63;5.60;;;;;;;;;;5031540;28;20611;-72
2022/10/10 12:50:23;;;;;;;11.63;4.70;;;;;;;;;;5030243;28;20667;-72
2022/10/10 12:52:51;;;;;;;9.35;5.25;;;;;;;;;;5030953;28;20733;-72
2022/10/10 12:55:22;;;;;;;6.97;4.68;;;;;;;;;;5032140;28;20183;-72
2022/10/10 12:57:49;;;;;;;9.90;5.30;;;;;;;;;;5030025;28;20707;-71
2022/10/10 13:00:15;;;;;;;9.95;5.53;;;;;;;;;;5011064;28;20187;-71
2022/10/10 13:02:42;;;;;;;7.22;4.85;;;;;;;;;;5030838;28;20198;-71
2022/10/10 13:05:10;;;;;;;13.25;5.85;;;;;;;;;;5031431;28;20277;-73
2022/10/10 13:07:36;;;;;;;12.45;5.35;;;;;;;;;;5031699;28;20170;-71
2022/10/10 13:10:06;;;;;;;6.68;4.25;;;;;;;;;;5033135;28;20170;-72
2022/10/10 13:12:32;;;;;;;8.05;4.05;;;;;;;;;;5034416;28;20281;-72
2022/10/10 13:14:58;;;;;;;9.20;4.22;;;;;;;;;;5035425;28;20170;-73
2022/10/10 13:17:28;;;;;;;4.45;2.38;;;;;;;;;;5017924;28;20555;-71
2022/10/10 13:19:53;;;;;;;5.95;2.08;;;;;;;;;;5035181;28;20198;-71
2022/10/10 13:22:20;;;;;;;3.55;1.33;;;;;;;;;;5035235;28;20204;-71
2022/10/10 13:24:46;;;;;;;4.68;1.40;;;;;;;;;;5035223;28;20316;-71
2022/10/10 13:27:21;;;;;;;6.82;1.40;;;;;;;;;;5034591;28;20337;-71
2022/10/10 13:29:47;;;;;;;2.10;1.20;;;;;;;;;;5027493;28;20252;-71
2022/10/10 13:32:13;;;;;;;4.15;1.40;;;;;;;;;;5034830;28;20242;-73
2022/10/10 13:34:42;;;;;;;1.45;0.70;;;;;;;;;;5035506;28;20162;-73
2022/10/10 13:37:11;;;;;;;0.30;0.20;;;;;;;;;;5035500;28;20173;-73
2022/10/10 13:39:37;;;;;;;3.38;0.22;;;;;;;;;;5035213;28;20250;-73
2022/10/10 13:42:04;;;;;;;0.30;0.20;;;;;;;;;;5033562;28;20173;-72
2022/10/10 13:44:31;;;;;;;0.52;0.20;;;;;;;;;;5034561;28;20241;-72
2022/10/10 13:46:57;;;;;;;1.48;0.30;;;;;;;;;;5034731;28;20240;-72
2022/10/10 13:49:29;;;;;;;1.27;0.30;;;;;;;;;;5017057;28;20178;-72
2022/10/10 13:52:04;;;;;;;1.77;0.50;;;;;;;;;;5031317;28;20644;-73
2022/10/10 13:54:37;;;;;;;3.55;0.52;;;;;;;;;;5034717;28;20194;-73
2022/10/10 13:57:03;;;;;;;0.80;0.30;;;;;;;;;;5034721;28;20646;-72
2022/10/10 13:59:28;;;;;;;2.20;0.77;;;;;;;;;;5033921;28;20262;-72
2022/10/10 14:01:58;;;;;;;2.47;0.60;;;;;;;;;;5034397;28;20198;-73
2022/10/10 14:04:33;;;;;;;2.42;0.80;;;;;;;;;;5014559;28;20202;-72
2022/10/10 14:07:09;;;;;;;5.05;1.33;;;;;;;;;;5034707;28;20627;-73
2022/10/10 14:09:43;;;;;;;2.00;0.80;;;;;;;;;;5034424;28;20185;-73
2022/10/10 14:12:23;;;;;;;4.22;1.48;;;;;;;;;;5032838;28;20178;-73
2022/10/10 14:14:52;;;;;;;3.58;0.93;;;;;;;;;;5025613;28;20181;-72
2022/10/10 14:17:17;;;;;;;8.65;1.10;;;;;;;;;;5034553;28;20174;-72
2022/10/10 14:19:43;;;;;;;5.80;1.55;;;;;;;;;;5033490;28;20182;-72
2022/10/10 14:22:09;;;;;;;4.70;1.27;;;;;;;;;;5033182;28;20216;-72
2022/10/10 14:24:34;;;;;;;5.93;1.10;;;;;;;;;;5034054;28;20337;-73
2022/10/10 14:27:14;;;;;;;3.05;1.00;;;;;;;;;;5033668;28;20178;-72
2022/10/10 14:29:39;;;;;;;5.57;1.30;;;;;;;;;;5033352;28;20174;-72
2022/10/10 14:32:05;;;;;;;3.33;1.05;;;;;;;;;;5028779;28;20167;-73
2022/10/10 14:34:30;;;;;;;7.18;1.50;;;;;;;;;;5020144;28;20711;-72
2022/10/10 14:36:55;;;;;;;8.85;1.92;;;;;;;;;;5033978;28;20175;-73
2022/10/10 14:39:20;;;;;;;6.15;1.10;;;;;;;;;;5033895;28;20171;-71